Bradford Regional Airport
KBFD : now visible

Airfield :











YOU CAN JOIN US ON...

 
LOGIN :

Register | Disclaimer

   EN    FR    IT 

 









Legend :    VFR   Marginal VFR   IFR   Intensive IFR   Very Intensive IFR
Visi :
Ceiling :
>= 8 km
>= 3000ft
5 to 8 km
1000 to 3000 ft
1500m to 5 km
500 to 1000 ft
800 to 1500m
200 to 500 ft
< 800m
< 200 ft
Symbols :   Thunderstorms  Fog  Heavy snow  Heavy precipitations  Wind > 20 kt






- Airport Elevation : 2143 ft
- IATA code : BFD


KBFD - Bradford Regional

CURRENT METAR :
  • 110653Z AUTO 15003KT 10SM CLR 22/14 A2999 RMK AO2 SLP132 T02170144

EXPIRED METARs :
  • 110553Z AUTO 13004KT 8SM CLR 18/16 A2999 RMK AO2 SLP135 T01830156 10256 20178 58014
  • 110453Z AUTO 13003KT 6SM BR CLR 18/17 A3002 RMK AO2 SLP146 T01830167 403000144

TAF KBFD
Valid from the 11 at 06:00 until the 12 at 06:00 UTC


110530Z 1106/1206 17003KT 6SM BR VCFG BKN200
FM111300 21005KT P6SM BKN100
FM111600 24010G15KT P6SM SCT050
FM112000 27008KT P6SM -SHRA VCTS BKN050CB
FM120300 31004KT P6SM OVC025
KZOB FIR / North America



MET'MAP, your aeronautical weather chart ! - Copyright ORBIFLY December 2007 - Disclaimer

ORBIFLY MET'MAP TEAM :

Programming & Development : Alexandra Zaïnal
Concept & original design : Baudouin d'Aumeries
Assistance for programming : Marc-Olivier Méhu
Technical & hardware support : Manuel Goepfert

Contact : metmap@orbifly.com




SOURCES & CREDITS :

   NOAA       Earth
Advisory